Time;durP1;ratioP1;P1;durP2;ratioP2;P2;SDS_P1;SDS_P2;PMS_P1;PMS_P2;Temp;Humidity;BMP_temperature;BMP_pressure;BME280_temperature;BME280_humidity;BME280_pressure;Samples;Min_cycle;Max_cycle;Signal;HPM_P1;HPM_P2
2022/03/18 00:00:23;;;;;;;23.92;8.85;;;;;;;-5.66;38.97;102568.31;5077235;28;20138;-79
2022/03/18 00:02:54;;;;;;;19.70;8.38;;;;;;;-5.28;39.60;102600.59;5079449;28;20048;-79
2022/03/18 00:05:24;;;;;;;20.63;8.57;;;;;;;-5.28;39.32;102607.34;5075784;28;20057;-80
2022/03/18 00:07:52;;;;;;;19.80;8.25;;;;;;;-5.76;39.38;102518.94;5075252;28;20060;-79
2022/03/18 00:10:20;;;;;;;23.48;9.27;;;;;;;-5.35;39.34;102593.03;5075281;28;20057;-80
2022/03/18 00:12:47;;;;;;;20.70;7.60;;;;;;;-5.33;39.25;102605.91;5075501;28;20064;-80
2022/03/18 00:15:15;;;;;;;19.42;8.73;;;;;;;-5.42;39.72;102578.69;5076120;28;20080;-81
2022/03/18 00:17:43;;;;;;;21.95;7.50;;;;;;;-5.70;39.34;102533.06;5075036;28;20083;-80
2022/03/18 00:20:13;;;;;;;27.23;8.88;;;;;;;-5.48;39.94;102578.03;5074689;28;20418;-81
2022/03/18 00:22:42;;;;;;;26.23;7.63;;;;;;;-5.45;39.72;102615.66;5073126;28;20052;-79
2022/03/18 00:25:11;;;;;;;23.10;8.75;;;;;;;-5.48;39.43;102593.31;5074225;28;20045;-79
2022/03/18 00:27:39;;;;;;;30.52;8.88;;;;;;;-5.47;39.89;102578.91;5074790;28;20057;-80
2022/03/18 00:30:07;;;;;;;22.70;8.77;;;;;;;-5.74;39.58;102526.75;5075139;28;20056;-80
2022/03/18 00:32:34;;;;;;;18.45;7.63;;;;;;;-5.73;39.35;102527.63;5075245;28;20106;-79
2022/03/18 00:35:21;;;;;;;19.90;7.65;;;;;;;-5.47;39.14;102578.91;5074906;28;20056;-76
2022/03/18 00:37:48;;;;;;;23.67;8.10;;;;;;;-5.44;39.08;102590.38;5074685;28;20053;-78
2022/03/18 00:40:15;;;;;;;18.27;8.02;;;;;;;-5.66;39.23;102547.94;5074745;28;20058;-81
2022/03/18 00:42:42;;;;;;;18.42;7.65;;;;;;;-5.58;39.47;102587.91;5075948;28;20056;-78
2022/03/18 00:45:09;;;;;;;25.30;8.57;;;;;;;-5.73;39.20;102560.75;5082729;28;20051;-78
2022/03/18 00:53:08;;;;;;;18.83;7.63;;;;;;;-5.72;39.72;102591.47;5073483;28;20504;-79
2022/03/18 00:55:35;;;;;;;21.08;7.47;;;;;;;-5.75;40.17;102580.94;5074316;28;20101;-80
2022/03/18 00:58:01;;;;;;;21.23;7.88;;;;;;;-5.91;40.08;102578.31;5073982;28;20469;-79
2022/03/18 01:00:28;;;;;;;19.90;7.95;;;;;;;-5.95;40.54;102554.94;5057450;28;20061;-81
2022/03/18 01:02:55;;;;;;;18.85;7.70;;;;;;;-5.87;40.59;102598.31;5075529;28;20084;-77
2022/03/18 01:05:22;;;;;;;25.05;8.25;;;;;;;-5.90;40.76;102587.75;5074836;28;20452;-81
2022/03/18 01:07:49;;;;;;;18.52;7.63;;;;;;;-5.94;41.29;102605.09;5073897;28;20484;-80
2022/03/18 01:10:17;;;;;;;17.67;7.70;;;;;;;-5.97;40.86;102596.38;5073953;28;20502;-79
2022/03/18 01:12:43;;;;;;;15.07;7.32;;;;;;;-5.98;41.29;102606.38;5074713;28;20139;-81
2022/03/18 01:15:10;;;;;;;17.25;7.70;;;;;;;-6.04;41.42;102583.72;5073956;28;20155;-81
2022/03/18 01:17:37;;;;;;;22.95;8.60;;;;;;;-6.01;40.98;102593.31;5074066;28;20056;-82
2022/03/18 01:20:05;;;;;;;23.30;10.00;;;;;;;-6.01;41.28;102600.97;5074040;28;20076;-80
2022/03/18 01:22:32;;;;;;;23.48;9.07;;;;;;;-6.07;41.29;102612.97;5072628;28;20053;-81
2022/03/18 01:24:59;;;;;;;23.20;9.05;;;;;;;-6.11;41.62;102601.53;5073478;28;20399;-81
2022/03/18 01:27:26;;;;;;;20.50;8.63;;;;;;;-6.09;41.73;102604.25;5073953;28;20057;-81
2022/03/18 01:29:53;;;;;;;21.58;9.77;;;;;;;-6.07;41.91;102606.25;5073559;28;20064;-78
2022/03/18 01:32:20;;;;;;;21.73;9.18;;;;;;;-6.22;42.19;102581.59;5073376;28;20067;-81
2022/03/18 01:34:46;;;;;;;24.20;9.48;;;;;;;-6.11;41.64;102593.00;5073148;28;20133;-80
2022/03/18 01:37:13;;;;;;;21.92;9.48;;;;;;;-6.22;41.87;102551.06;5072345;28;20049;-79
2022/03/18 01:39:40;;;;;;;19.30;10.52;;;;;;;-6.23;41.79;102547.63;5073431;28;20056;-80
2022/03/18 01:42:07;;;;;;;20.85;9.30;;;;;;;-6.20;41.96;102547.97;5073194;28;20048;-77
2022/03/18 01:44:42;;;;;;;18.67;8.95;;;;;;;-5.92;42.32;102611.25;5073589;28;20049;-81
2022/03/18 01:47:10;;;;;;;20.75;9.35;;;;;;;-5.99;41.98;102589.31;5073801;28;20105;-80
2022/03/18 01:49:38;;;;;;;23.75;8.80;;;;;;;-5.94;42.20;102600.00;5073877;28;20053;-80
2022/03/18 01:52:09;;;;;;;19.13;7.78;;;;;;;-5.85;42.75;102601.94;5072741;28;20505;-80
2022/03/18 01:54:49;;;;;;;21.90;9.13;;;;;;;-5.80;42.08;102610.09;5073722;28;20056;-79
2022/03/18 01:57:22;;;;;;;24.60;8.07;;;;;;;-5.85;42.08;102601.00;5077550;28;20143;-80
2022/03/18 01:59:51;;;;;;;18.90;8.10;;;;;;;-6.01;42.98;102596.75;5078891;28;20044;-79
2022/03/18 02:02:18;;;;;;;20.38;8.00;;;;;;;-5.93;42.89;102610.34;5074319;28;20399;-81
2022/03/18 02:04:46;;;;;;;21.25;8.63;;;;;;;-6.01;43.27;102614.59;5073249;28;20548;-80
2022/03/18 02:07:14;;;;;;;23.65;9.15;;;;;;;-6.14;43.19;102610.47;5072883;28;20052;-80
2022/03/18 02:09:41;;;;;;;27.23;9.43;;;;;;;-6.13;43.69;102612.28;5072682;28;20083;-81
2022/03/18 02:12:09;;;;;;;23.38;7.90;;;;;;;-6.19;43.83;102613.41;5072692;28;20078;-80
2022/03/18 02:14:45;;;;;;;22.52;8.75;;;;;;;-6.22;43.86;102625.75;5072530;28;20050;-81
2022/03/18 02:17:14;;;;;;;21.90;8.77;;;;;;;-6.36;43.88;102623.28;5075243;28;20623;-81
2022/03/18 02:19:43;;;;;;;26.75;8.55;;;;;;;-6.49;44.51;102604.81;5075361;28;20056;-79
2022/03/18 02:22:12;;;;;;;23.95;7.70;;;;;;;-6.47;44.42;102611.00;5075543;28;20524;-80
2022/03/18 02:24:44;;;;;;;17.80;7.97;;;;;;;-6.55;44.64;102622.81;5081090;28;20036;-80
2022/03/18 02:27:13;;;;;;;23.98;8.60;;;;;;;-6.76;44.48;102578.00;5098228;28;20029;-80
2022/03/18 02:29:41;;;;;;;18.08;7.80;;;;;;;-6.58;44.79;102619.94;5088619;28;20060;-78
2022/03/18 02:32:09;;;;;;;22.20;7.40;;;;;;;-6.56;44.88;102637.88;5072962;28;20147;-77
2022/03/18 02:34:39;;;;;;;19.52;7.90;;;;;;;-6.59;44.97;102652.06;5073481;28;20197;-81
2022/03/18 02:37:07;;;;;;;17.03;7.40;;;;;;;-6.63;45.29;102621.91;5072618;28;20049;-83
2022/03/18 02:39:34;;;;;;;17.85;7.35;;;;;;;-6.66;45.10;102595.25;5072662;28;20287;-80
2022/03/18 02:42:01;;;;;;;18.75;7.45;;;;;;;-6.41;45.39;102639.66;5082387;28;20051;-78
2022/03/18 02:44:28;;;;;;;18.05;7.55;;;;;;;-6.26;44.68;102645.59;5073147;28;20447;-79
2022/03/18 02:46:56;;;;;;;19.45;7.80;;;;;;;-6.22;44.61;102610.50;5073185;28;20429;-79
2022/03/18 02:49:25;;;;;;;23.40;8.63;;;;;;;-6.08;44.78;102641.72;5076932;28;20101;-79
2022/03/18 02:51:52;;;;;;;26.48;8.30;;;;;;;-6.05;44.75;102626.78;5076735;28;20067;-79
2022/03/18 02:54:19;;;;;;;21.60;7.38;;;;;;;-6.01;44.55;102645.13;5076503;28;20502;-80
2022/03/18 02:56:47;;;;;;;21.30;8.13;;;;;;;-6.04;45.19;102633.72;5077321;28;20048;-79
2022/03/18 02:59:14;;;;;;;19.63;7.47;;;;;;;-6.33;44.92;102582.03;5077032;28;20078;-78
2022/03/18 03:01:41;;;;;;;24.85;8.27;;;;;;;-6.21;45.15;102602.16;5076365;28;20498;-80
2022/03/18 03:04:08;;;;;;;23.70;9.07;;;;;;;-6.11;45.99;102628.63;5076031;28;20055;-79
2022/03/18 03:09:21;;;;;;;25.40;9.00;;;;;;;-6.29;46.02;102602.91;5076820;28;20071;-81
2022/03/18 03:11:48;;;;;;;22.25;9.00;;;;;;;-6.40;45.79;102604.22;5075795;28;20057;-78
2022/03/18 03:14:15;;;;;;;29.40;9.60;;;;;;;-6.33;46.38;102574.41;5075721;28;20489;-81
2022/03/18 03:16:42;;;;;;;22.95;8.88;;;;;;;-6.12;46.62;102617.56;5075892;28;20109;-78
2022/03/18 03:19:09;;;;;;;25.00;9.15;;;;;;;-6.17;46.47;102608.50;5075869;28;20052;-79
2022/03/18 03:21:37;;;;;;;34.88;9.75;;;;;;;-6.16;46.75;102605.22;5075804;28;20209;-81
2022/03/18 03:24:05;;;;;;;25.85;8.80;;;;;;;-6.01;46.76;102619.66;5075798;28;20056;-78
2022/03/18 03:26:32;;;;;;;23.27;9.48;;;;;;;-6.12;46.36;102604.84;5074504;28;20502;-79
2022/03/18 03:29:00;;;;;;;25.60;8.35;;;;;;;-6.00;46.48;102610.38;5075819;28;20048;-79
2022/03/18 03:31:27;;;;;;;23.25;8.80;;;;;;;-6.20;46.51;102592.88;5075695;28;20447;-80
2022/03/18 03:33:54;;;;;;;20.85;7.57;;;;;;;-5.99;46.65;102607.13;5075865;28;20098;-82
2022/03/18 03:36:23;;;;;;;19.67;6.65;;;;;;;-5.87;46.35;102625.38;5075926;28;20110;-78
2022/03/18 03:38:50;;;;;;;23.05;8.07;;;;;;;-5.83;46.21;102617.34;5075850;28;20048;-80
2022/03/18 03:41:20;;;;;;;21.27;8.15;;;;;;;-5.76;46.03;102630.06;5079391;28;20048;-78
2022/03/18 03:43:49;;;;;;;25.38;8.73;;;;;;;-6.16;45.77;102539.06;5074444;28;20486;-81
2022/03/18 03:46:16;;;;;;;24.58;9.05;;;;;;;-5.80;45.87;102602.44;5074227;28;20080;-81
2022/03/18 03:48:43;;;;;;;22.40;7.53;;;;;;;-5.79;45.86;102609.34;5075446;28;20101;-82
2022/03/18 03:51:10;;;;;;;28.25;8.50;;;;;;;-5.74;46.03;102602.19;5073964;28;20402;-81
2022/03/18 03:53:37;;;;;;;23.58;8.88;;;;;;;-5.76;45.71;102604.59;5075291;28;20055;-83
2022/03/18 03:56:04;;;;;;;24.27;8.85;;;;;;;-5.68;45.65;102621.63;5075218;28;20056;-81
2022/03/18 03:58:31;;;;;;;25.05;8.38;;;;;;;-5.63;45.67;102620.53;5075150;28;20058;-81
2022/03/18 04:00:58;;;;;;;25.33;9.60;;;;;;;-5.85;45.31;102557.72;5074178;28;20060;-80
2022/03/18 04:03:25;;;;;;;27.52;8.55;;;;;;;-5.66;45.25;102573.41;5084163;28;20092;-82
2022/03/18 04:05:52;;;;;;;24.38;8.43;;;;;;;-5.32;45.95;102643.41;5074422;28;20052;-80
2022/03/18 04:08:19;;;;;;;27.20;8.80;;;;;;;-5.34;45.73;102622.84;5078645;28;20044;-81
2022/03/18 04:10:46;;;;;;;20.80;9.10;;;;;;;-5.44;45.59;102594.53;5085167;28;20060;-80
2022/03/18 04:13:12;;;;;;;26.38;9.35;;;;;;;-5.12;45.36;102635.41;5082446;28;20064;-79
2022/03/18 04:15:40;;;;;;;27.67;9.43;;;;;;;-5.38;45.42;102569.72;5080658;28;20070;-79
2022/03/18 04:18:07;;;;;;;26.23;9.90;;;;;;;-5.11;45.42;102605.00;5082685;28;20044;-79
2022/03/18 04:20:34;;;;;;;27.63;10.48;;;;;;;-5.05;45.50;102612.44;5085920;28;20048;-78
2022/03/18 04:23:02;;;;;;;25.55;9.18;;;;;;;-4.84;45.89;102632.63;5082787;28;20067;-78
2022/03/18 04:25:30;;;;;;;25.27;10.50;;;;;;;-4.68;45.59;102629.19;5083672;28;20048;-78
2022/03/18 04:27:58;;;;;;;27.55;11.02;;;;;;;-4.51;45.58;102646.31;5082743;28;20421;-78
2022/03/18 04:30:26;;;;;;;29.95;10.93;;;;;;;-4.39;45.46;102630.69;5080300;28;20055;-79
2022/03/18 04:32:53;;;;;;;26.25;10.57;;;;;;;-4.25;45.11;102621.03;5083111;28;20093;-78
2022/03/18 04:35:21;;;;;;;24.95;9.60;;;;;;;-4.33;44.87;102581.94;5082226;28;20076;-78
2022/03/18 04:37:49;;;;;;;28.17;10.32;;;;;;;-3.97;44.73;102620.66;5084368;28;20438;-79
2022/03/18 04:40:16;;;;;;;26.95;10.90;;;;;;;-3.75;44.63;102633.13;5086355;28;20055;-81
2022/03/18 04:42:44;;;;;;;29.75;10.27;;;;;;;-3.63;43.90;102625.88;5079243;28;20449;-79
2022/03/18 04:45:13;;;;;;;26.70;9.93;;;;;;;-3.43;43.69;102626.25;5082402;28;20052;-80
2022/03/18 04:47:40;;;;;;;28.05;10.10;;;;;;;-3.35;43.20;102609.19;5083782;28;20044;-80
2022/03/18 04:50:08;;;;;;;26.40;8.82;;;;;;;-3.11;42.72;102621.00;5081836;28;20568;-81
2022/03/18 04:52:35;;;;;;;23.27;9.20;;;;;;;-2.93;42.55;102625.41;5082994;28;20087;-80
2022/03/18 04:55:04;;;;;;;29.88;9.48;;;;;;;-2.97;42.10;102574.72;5084447;28;20048;-80
2022/03/18 04:57:31;;;;;;;31.02;10.27;;;;;;;-2.59;41.94;102616.03;5104666;28;20051;-81
2022/03/18 04:59:59;;;;;;;32.03;9.35;;;;;;;-2.35;41.60;102620.13;5101908;28;20063;-80
2022/03/18 05:02:26;;;;;;;25.33;9.07;;;;;;;-2.20;41.30;102622.41;5094352;28;20048;-79
2022/03/18 05:04:54;;;;;;;24.95;9.20;;;;;;;-1.98;41.06;102618.66;5093225;28;20113;-79
2022/03/18 05:07:21;;;;;;;25.35;8.65;;;;;;;-1.79;40.71;102622.97;5083628;28;20054;-80
2022/03/18 05:09:51;;;;;;;24.83;8.23;;;;;;;-1.71;39.88;102616.94;5082175;28;20049;-79
2022/03/18 05:12:18;;;;;;;33.03;10.25;;;;;;;-1.50;39.91;102607.84;5082637;28;20053;-79
2022/03/18 05:14:51;;;;;;;24.05;8.25;;;;;;;-1.34;39.70;102623.03;5080786;28;20044;-78
2022/03/18 05:17:21;;;;;;;37.38;8.98;;;;;;;-1.19;39.14;102611.66;5082423;28;20055;-78
2022/03/18 05:19:48;;;;;;;;;;;;;;;-1.20;39.89;102606.41;5080299;28;20040;-79
2022/03/18 05:22:16;;;;;;;20.30;7.28;;;;;;;-1.16;39.03;102608.47;5084716;28;19926;-80
2022/03/18 05:24:42;;;;;;;23.77;8.30;;;;;;;-1.01;38.50;102602.25;5081874;28;20076;-81
2022/03/18 05:27:09;;;;;;;24.02;8.35;;;;;;;-0.70;37.77;102611.13;5090059;28;20060;-80
2022/03/18 05:29:37;;;;;;;19.95;7.32;;;;;;;-0.22;37.26;102608.66;5082272;28;20505;-79
2022/03/18 05:32:04;;;;;;;25.27;8.18;;;;;;;-0.02;36.71;102583.88;5083253;28;20071;-78
2022/03/18 05:34:32;;;;;;;19.80;6.80;;;;;;;0.05;36.28;102596.50;5081232;28;20474;-79
2022/03/18 05:36:59;;;;;;;19.45;7.03;;;;;;;-0.10;36.46;102580.59;5083874;28;20078;-79
2022/03/18 05:39:26;;;;;;;20.77;7.40;;;;;;;-0.16;36.50;102592.00;5083842;28;20612;-78
2022/03/18 05:41:52;;;;;;;25.95;7.53;;;;;;;-0.28;37.17;102594.34;5080676;28;20097;-77
2022/03/18 05:44:19;;;;;;;20.05;7.55;;;;;;;-0.42;37.12;102593.09;5083866;28;20056;-82
2022/03/18 05:46:46;;;;;;;24.58;6.70;;;;;;;-0.65;36.96;102558.50;5087149;28;20052;-78
2022/03/18 05:49:14;;;;;;;20.75;7.35;;;;;;;-0.47;37.39;102625.19;5081379;28;20044;-80
2022/03/18 05:51:41;;;;;;;18.27;7.00;;;;;;;-0.58;37.06;102587.31;5092984;28;20064;-78
2022/03/18 05:54:09;;;;;;;21.77;6.70;;;;;;;-0.50;36.65;102600.09;5088634;28;20078;-80
2022/03/18 05:56:55;;;;;;;21.85;7.72;;;;;;;-0.63;37.07;102595.50;5086682;28;20413;-80
2022/03/18 05:59:24;;;;;;;17.23;7.13;;;;;;;-0.70;37.14;102608.53;5087855;28;20052;-78
2022/03/18 06:01:57;;;;;;;;;;;;;;;-0.98;38.22;102596.50;5094135;28;20067;-79
2022/03/18 06:04:25;;;;;;;24.23;8.13;;;;;;;-1.15;37.95;102584.63;5087292;28;19996;-79
2022/03/18 06:06:52;;;;;;;18.02;6.85;;;;;;;-1.16;37.72;102599.13;5088596;28;20149;-79
2022/03/18 06:12:07;;;;;;;17.17;7.68;;;;;;;-1.42;37.91;102599.22;5079277;28;20044;-79
2022/03/18 06:14:34;;;;;;;16.15;6.95;;;;;;;-1.53;38.31;102599.84;5085582;28;20055;-79
2022/03/18 06:17:03;;;;;;;22.83;7.13;;;;;;;-1.46;38.46;102598.03;5080641;28;20051;-78
2022/03/18 06:19:31;;;;;;;18.03;7.40;;;;;;;-1.24;37.87;102584.69;5079199;28;20569;-80
2022/03/18 06:21:59;;;;;;;24.88;9.15;;;;;;;-1.19;37.79;102539.84;5077381;28;20334;-79
2022/03/18 06:24:26;;;;;;;22.52;8.15;;;;;;;-0.77;37.67;102585.66;5080164;28;20106;-80
2022/03/18 06:26:54;;;;;;;22.52;7.85;;;;;;;-0.52;37.51;102581.06;5080172;28;20059;-79
2022/03/18 06:29:21;;;;;;;18.90;7.05;;;;;;;-0.37;36.90;102580.69;5081314;28;20051;-79
2022/03/18 06:31:49;;;;;;;21.90;7.28;;;;;;;-0.16;36.63;102577.47;5080907;28;20052;-80
2022/03/18 06:34:18;;;;;;;19.42;7.60;;;;;;;0.04;36.79;102568.97;5078762;28;20041;-80
2022/03/18 06:36:45;;;;;;;18.45;7.47;;;;;;;0.15;36.45;102564.78;5081896;28;20048;-79
2022/03/18 06:39:13;;;;;;;17.45;7.35;;;;;;;0.32;36.60;102567.19;5084558;28;20052;-80
2022/03/18 06:41:41;;;;;;;15.05;6.85;;;;;;;0.34;36.07;102586.19;5080004;28;20060;-80
2022/03/18 06:44:08;;;;;;;15.40;6.50;;;;;;;0.25;35.78;102557.13;5083238;28;20528;-79
2022/03/18 06:46:39;;;;;;;24.52;7.47;;;;;;;0.37;36.17;102567.59;5080098;28;20056;-79
2022/03/18 06:49:07;;;;;;;22.33;7.28;;;;;;;0.39;35.81;102561.81;5081005;28;20471;-79
2022/03/18 06:51:35;;;;;;;16.48;7.35;;;;;;;0.29;35.58;102512.91;5082119;28;20114;-78
2022/03/18 06:54:03;;;;;;;17.00;6.80;;;;;;;0.71;35.75;102553.41;5079734;28;20059;-78
2022/03/18 06:56:30;;;;;;;13.40;6.03;;;;;;;0.81;35.13;102545.69;5080379;28;20129;-79
2022/03/18 06:58:58;;;;;;;23.58;7.10;;;;;;;0.79;35.32;102533.47;5080606;28;20134;-79
2022/03/18 07:01:25;;;;;;;12.55;6.35;;;;;;;0.94;35.14;102549.31;5080767;28;20048;-80
2022/03/18 07:03:52;;;;;;;13.73;6.13;;;;;;;0.93;35.45;102530.41;5080144;28;20048;-80
2022/03/18 07:06:20;;;;;;;16.33;6.15;;;;;;;1.09;34.90;102506.84;5076367;28;20114;-79
2022/03/18 07:08:46;;;;;;;12.77;6.28;;;;;;;1.24;34.84;102494.34;5080576;28;20558;-78
2022/03/18 07:11:14;;;;;;;17.73;5.53;;;;;;;1.34;34.72;102496.91;5079936;28;20060;-79
2022/03/18 07:13:43;;;;;;;13.70;6.47;;;;;;;1.47;34.67;102498.84;5078199;28;20045;-78
2022/03/18 07:18:57;;;;;;;10.55;5.22;;;;;;;1.87;34.43;102537.25;5081353;28;20056;-78
2022/03/18 07:21:24;;;;;;;10.00;4.93;;;;;;;1.84;33.86;102522.44;5080198;28;20083;-78
2022/03/18 07:23:51;;;;;;;11.23;5.32;;;;;;;1.86;33.71;102531.19;5084062;28;20055;-78
2022/03/18 07:26:18;;;;;;;10.88;4.90;;;;;;;1.93;33.43;102541.22;5083465;28;20826;-77
2022/03/18 07:28:46;;;;;;;11.40;5.00;;;;;;;1.94;33.83;102530.16;5100393;28;20040;-78
2022/03/18 07:31:13;;;;;;;13.05;4.25;;;;;;;1.88;33.76;102532.22;5117286;28;20056;-79
2022/03/18 07:33:40;;;;;;;10.25;4.32;;;;;;;1.94;33.65;102512.09;5090997;28;20147;-78
2022/03/18 07:36:07;;;;;;;11.48;4.55;;;;;;;1.98;33.37;102521.88;5075183;28;20209;-79
2022/03/18 07:38:34;;;;;;;9.05;4.10;;;;;;;1.96;33.49;102522.53;5081584;28;20053;-78
2022/03/18 07:41:02;;;;;;;11.73;4.70;;;;;;;1.99;33.27;102517.63;5082156;28;20048;-80
2022/03/18 07:43:29;;;;;;;8.45;4.50;;;;;;;1.93;33.29;102504.22;5083286;28;20052;-79
2022/03/18 07:45:56;;;;;;;9.48;4.22;;;;;;;2.14;33.67;102505.94;5079658;28;20080;-77
2022/03/18 07:48:26;;;;;;;9.48;4.55;;;;;;;2.05;33.41;102482.03;5084092;28;20117;-79
2022/03/18 07:50:55;;;;;;;10.27;4.32;;;;;;;2.36;33.12;102499.91;5082998;28;20051;-78
2022/03/18 07:53:22;;;;;;;12.25;4.97;;;;;;;2.44;33.30;102512.63;5083084;28;20121;-78
2022/03/18 07:55:49;;;;;;;10.98;4.72;;;;;;;2.45;33.07;102509.28;5081954;28;20138;-80
2022/03/18 07:58:19;;;;;;;7.88;4.45;;;;;;;2.12;32.80;102460.19;5080796;28;20098;-80
2022/03/18 08:00:45;;;;;;;9.30;4.10;;;;;;;2.45;33.31;102508.34;5083586;28;20048;-78
2022/03/18 08:03:14;;;;;;;10.32;4.25;;;;;;;2.38;32.47;102490.59;5083601;28;20059;-80
2022/03/18 08:05:41;;;;;;;11.30;4.97;;;;;;;2.35;33.41;102488.69;5079858;28;20084;-80
2022/03/18 08:08:09;;;;;;;11.43;4.38;;;;;;;2.33;32.75;102468.72;5083062;28;20441;-80
2022/03/18 08:10:40;;;;;;;9.07;3.90;;;;;;;2.53;33.24;102496.06;5080867;28;20139;-78
2022/03/18 08:13:11;;;;;;;8.52;4.47;;;;;;;2.55;33.23;102505.72;5084864;28;20056;-79
2022/03/18 08:15:40;;;;;;;7.35;4.28;;;;;;;2.48;33.00;102481.94;5085188;28;20044;-79
2022/03/18 08:18:10;;;;;;;7.93;3.87;;;;;;;2.55;32.44;102507.41;5085517;28;20040;-78
2022/03/18 08:20:40;;;;;;;6.93;4.03;;;;;;;2.56;32.65;102512.69;5081315;28;20493;-78
2022/03/18 08:23:11;;;;;;;11.85;4.93;;;;;;;2.64;32.41;102505.53;5082191;28;20058;-76
2022/03/18 08:25:38;;;;;;;10.50;4.63;;;;;;;1.84;32.41;102398.72;5085013;28;20147;-80
2022/03/18 08:28:07;;;;;;;9.98;3.92;;;;;;;2.36;32.40;102521.44;5083395;28;20061;-79
2022/03/18 08:30:35;;;;;;;6.75;3.60;;;;;;;2.32;32.18;102492.69;5078988;28;20063;-80
2022/03/18 08:33:04;;;;;;;8.10;4.45;;;;;;;2.45;32.43;102487.72;5086058;28;20048;-76
2022/03/18 08:35:31;;;;;;;11.68;3.58;;;;;;;2.78;32.16;102509.22;5085314;28;20048;-78
2022/03/18 08:37:58;;;;;;;13.00;4.85;;;;;;;2.82;31.94;102512.13;5061948;28;20530;-79
2022/03/18 08:40:28;;;;;;;7.38;3.80;;;;;;;2.85;31.71;102503.72;5076251;28;20486;-78
2022/03/18 08:42:57;;;;;;;7.30;3.80;;;;;;;3.06;31.73;102518.28;5061926;28;20051;-78
2022/03/18 08:45:25;;;;;;;11.43;4.78;;;;;;;3.26;31.83;102513.69;5063034;28;20049;-78
2022/03/18 08:47:55;;;;;;;9.88;4.18;;;;;;;3.34;31.57;102509.13;5062287;28;20052;-78
2022/03/18 08:50:27;;;;;;;10.60;4.18;;;;;;;3.34;31.27;102488.47;5063177;28;20040;-77
2022/03/18 08:52:56;;;;;;;8.98;4.35;;;;;;;3.48;31.72;102486.13;5063866;28;20052;-80
2022/03/18 08:55:24;;;;;;;11.57;4.68;;;;;;;3.63;31.31;102475.97;5045889;28;20049;-78
2022/03/18 08:57:53;;;;;;;8.77;4.15;;;;;;;3.76;31.42;102472.59;5064227;28;20131;-79
2022/03/18 09:00:20;;;;;;;11.50;5.88;;;;;;;3.65;30.81;102455.41;5061355;28;20079;-79
2022/03/18 09:02:49;;;;;;;13.35;4.85;;;;;;;3.83;30.91;102495.53;5062987;28;20059;-79
2022/03/18 09:05:17;;;;;;;7.95;3.83;;;;;;;3.64;30.79;102485.53;5065593;28;20053;-79
2022/03/18 09:07:44;;;;;;;8.18;4.32;;;;;;;3.54;30.66;102474.41;5062584;28;20140;-79
2022/03/18 09:10:12;;;;;;;17.70;8.13;;;;;;;3.68;31.24;102477.22;5062855;28;20551;-79
2022/03/18 09:12:52;;;;;;;7.10;4.28;;;;;;;3.56;30.70;102441.81;5068978;28;20060;-79
2022/03/18 09:15:19;;;;;;;6.93;3.97;;;;;;;3.70;30.83;102477.34;5058463;28;20060;-79
2022/03/18 09:17:46;;;;;;;9.63;3.97;;;;;;;3.80;31.16;102487.53;5060919;28;20489;-80
2022/03/18 09:20:13;;;;;;;9.43;3.95;;;;;;;3.71;30.65;102473.97;5061951;28;20044;-78
2022/03/18 09:22:40;;;;;;;9.98;4.13;;;;;;;3.62;30.57;102452.63;5066816;28;20048;-81
2022/03/18 09:25:08;;;;;;;6.93;3.60;;;;;;;3.75;30.70;102478.56;5078145;28;20045;-79
2022/03/18 09:27:36;;;;;;;8.50;4.03;;;;;;;3.86;30.66;102477.66;5083715;28;20185;-79
2022/03/18 09:30:11;;;;;;;6.93;4.00;;;;;;;3.88;30.42;102457.97;5072994;28;20110;-79
2022/03/18 09:32:42;;;;;;;8.05;4.32;;;;;;;4.01;30.25;102467.50;5073270;28;20085;-78
2022/03/18 09:35:12;;;;;;;6.93;4.20;;;;;;;4.07;30.16;102448.94;5072763;28;20409;-78
2022/03/18 09:37:39;;;;;;;7.13;3.53;;;;;;;4.16;30.10;102452.19;5080070;28;20051;-80
2022/03/18 09:40:08;;;;;;;8.20;3.67;;;;;;;4.21;29.52;102463.75;5093194;28;20056;-79
2022/03/18 09:42:58;;;;;;;8.93;3.95;;;;;;;4.03;29.83;102432.31;5080435;28;20147;-78
2022/03/18 09:45:30;;;;;;;7.85;3.72;;;;;;;4.23;29.34;102441.47;5072964;28;20059;-80
2022/03/18 09:47:59;;;;;;;5.50;3.35;;;;;;;4.28;29.48;102431.44;5073564;28;20537;-78
2022/03/18 09:50:27;;;;;;;8.52;3.50;;;;;;;4.55;29.56;102442.81;5075705;28;20048;-78
2022/03/18 09:52:54;;;;;;;7.80;3.10;;;;;;;4.57;29.47;102443.81;5073968;28;20564;-78
2022/03/18 09:55:22;;;;;;;6.85;3.58;;;;;;;4.56;28.92;102384.16;5075951;28;20125;-80
2022/03/18 09:57:49;;;;;;;7.18;2.95;;;;;;;4.80;28.88;102423.78;5073747;28;20452;-79
2022/03/18 10:00:16;;;;;;;5.63;3.15;;;;;;;4.99;28.68;102428.47;5078434;28;20055;-81
2022/03/18 10:02:43;;;;;;;4.65;3.00;;;;;;;5.07;27.94;102445.44;5104785;28;20062;-78
2022/03/18 10:05:16;;;;;;;6.63;3.17;;;;;;;5.06;28.27;102426.41;5116702;28;20036;-79
2022/03/18 10:07:54;;;;;;;7.50;3.53;;;;;;;5.24;28.48;102408.59;5094218;28;20048;-79
2022/03/18 10:10:23;;;;;;;7.40;3.30;;;;;;;5.42;27.96;102423.53;5094731;28;20111;-80
2022/03/18 10:12:52;;;;;;;8.98;3.30;;;;;;;5.19;27.89;102404.81;5094186;28;20072;-79
2022/03/18 10:15:22;;;;;;;8.68;3.17;;;;;;;5.22;28.22;102420.53;5092835;28;20047;-80
2022/03/18 10:17:51;;;;;;;5.05;3.05;;;;;;;5.23;27.68;102391.25;5093597;28;20048;-78
2022/03/18 10:20:25;;;;;;;4.93;2.92;;;;;;;5.30;27.78;102401.22;5091812;28;20055;-80
2022/03/18 10:22:54;;;;;;;7.47;3.60;;;;;;;5.29;27.70;102396.84;5093092;28;20048;-78
2022/03/18 10:25:39;;;;;;;4.65;3.30;;;;;;;5.13;27.94;102391.44;5093126;28;20087;-80
2022/03/18 10:28:09;;;;;;;5.78;3.13;;;;;;;5.02;28.34;102395.91;5093594;28;20048;-78
2022/03/18 10:30:38;;;;;;;5.97;3.38;;;;;;;5.04;27.79;102407.28;5098519;28;20063;-78
2022/03/18 10:33:10;;;;;;;7.05;3.38;;;;;;;5.03;28.60;102404.56;5106293;28;20071;-79
2022/03/18 10:38:35;;;;;;;7.88;3.92;;;;;;;5.18;28.47;102404.69;5093781;28;20055;-78
2022/03/18 10:41:07;;;;;;;7.22;3.65;;;;;;;4.79;28.64;102359.81;5091272;28;20457;-79
2022/03/18 10:43:52;;;;;;;8.23;3.50;;;;;;;4.61;29.20;102355.22;5091576;28;20145;-78
2022/03/18 10:46:19;;;;;;;9.77;3.95;;;;;;;4.77;28.75;102380.41;5091704;28;20040;-78
2022/03/18 10:49:07;;;;;;;8.68;3.50;;;;;;;5.13;28.79;102388.84;5092815;28;20048;-80
2022/03/18 10:51:34;;;;;;;8.27;3.42;;;;;;;5.39;28.78;102382.75;5093497;28;20468;-81
2022/03/18 10:54:01;;;;;;;5.65;3.30;;;;;;;5.29;28.49;102364.81;5081186;28;20061;-79
2022/03/18 10:56:28;;;;;;;6.45;3.80;;;;;;;5.33;28.73;102365.16;5095738;28;20047;-77
2022/03/18 10:58:55;;;;;;;7.35;3.58;;;;;;;5.51;28.76;102396.53;5092803;28;20060;-79
2022/03/18 11:01:24;;;;;;;10.13;3.78;;;;;;;5.44;28.35;102398.63;5092548;28;20440;-77
2022/03/18 11:03:52;;;;;;;7.28;3.47;;;;;;;5.37;29.02;102371.41;5092158;28;20421;-79
2022/03/18 11:06:20;;;;;;;6.20;3.50;;;;;;;5.46;28.50;102366.84;5092063;28;20088;-78
2022/03/18 11:08:48;;;;;;;7.03;3.17;;;;;;;5.63;28.38;102383.44;5093504;28;20085;-78
2022/03/18 11:11:21;;;;;;;6.15;3.78;;;;;;;5.74;28.88;102372.06;5094438;28;20060;-79
2022/03/18 11:14:00;;;;;;;9.45;3.90;;;;;;;5.80;28.77;102368.06;5096125;28;20052;-79
2022/03/18 11:16:29;;;;;;;6.40;3.50;;;;;;;5.69;28.50;102352.72;5074326;28;20394;-79
2022/03/18 11:18:58;;;;;;;5.78;3.47;;;;;;;5.77;28.63;102358.38;5092709;28;20048;-79
2022/03/18 11:21:35;;;;;;;4.40;3.10;;;;;;;5.92;28.67;102366.22;5095992;28;20052;-78
2022/03/18 11:24:06;;;;;;;15.23;4.72;;;;;;;5.70;28.48;102335.44;5087542;28;20052;-77
2022/03/18 11:26:35;;;;;;;8.05;3.25;;;;;;;5.92;28.49;102361.94;5083651;28;20093;-79
2022/03/18 11:29:11;;;;;;;8.32;3.45;;;;;;;5.69;28.35;102352.72;5085662;28;20139;-79
2022/03/18 11:32:09;;;;;;;13.20;3.72;;;;;;;5.89;29.27;102350.47;5082056;28;20074;-80
2022/03/18 11:35:09;;;;;;;7.68;4.05;;;;;;;6.02;28.90;102350.44;5082761;28;20087;-78
2022/03/18 11:37:38;;;;;;;8.15;3.60;;;;;;;6.23;28.16;102355.16;5071943;28;20048;-78
2022/03/18 11:40:30;;;;;;;5.90;3.63;;;;;;;5.91;28.66;102333.28;5084988;28;20429;-79
2022/03/18 11:43:18;;;;;;;4.85;3.03;;;;;;;5.98;28.91;102347.56;5082326;28;20053;-79
2022/03/18 11:45:45;;;;;;;9.07;3.63;;;;;;;5.99;29.03;102350.28;5083849;28;20083;-77
2022/03/18 11:48:34;;;;;;;9.80;4.70;;;;;;;6.14;28.68;102346.00;5082855;28;20464;-77